sensor_id;sensor_type;location;lat;lon;timestamp;temperature;humidity
48488;DHT22;34289;48.572;13.378;2024-03-08T00:00:14;-1.00;99.90
48488;DHT22;34289;48.572;13.378;2024-03-08T00:02:41;-1.00;99.90
48488;DHT22;34289;48.572;13.378;2024-03-08T00:05:08;-0.90;99.90
48488;DHT22;34289;48.572;13.378;2024-03-08T00:07:40;-0.90;99.90
48488;DHT22;34289;48.572;13.378;2024-03-08T00:10:07;-0.70;99.90
48488;DHT22;34289;48.572;13.378;2024-03-08T00:12:39;-0.90;99.90
48488;DHT22;34289;48.572;13.378;2024-03-08T00:15:08;-0.50;99.90
48488;DHT22;34289;48.572;13.378;2024-03-08T00:17:34;-0.60;99.90
48488;DHT22;34289;48.572;13.378;2024-03-08T00:19:59;-0.60;99.90
48488;DHT22;34289;48.572;13.378;2024-03-08T00:22:25;-0.30;99.90
48488;DHT22;34289;48.572;13.378;2024-03-08T00:24:51;-0.50;99.90
48488;DHT22;34289;48.572;13.378;2024-03-08T00:27:16;-0.50;99.90
48488;DHT22;34289;48.572;13.378;2024-03-08T00:29:42;-0.50;99.90
48488;DHT22;34289;48.572;13.378;2024-03-08T00:32:07;-0.20;99.90
48488;DHT22;34289;48.572;13.378;2024-03-08T00:34:36;-0.20;99.90
48488;DHT22;34289;48.572;13.378;2024-03-08T00:37:04;0.00;99.90
48488;DHT22;34289;48.572;13.378;2024-03-08T00:39:30;-0.10;99.90
48488;DHT22;34289;48.572;13.378;2024-03-08T00:41:56;-0.10;99.90
48488;DHT22;34289;48.572;13.378;2024-03-08T00:44:21;-0.20;99.90
48488;DHT22;34289;48.572;13.378;2024-03-08T00:46:47;-0.10;99.90
48488;DHT22;34289;48.572;13.378;2024-03-08T00:49:13;-0.30;99.90
48488;DHT22;34289;48.572;13.378;2024-03-08T00:51:38;-0.20;99.90
48488;DHT22;34289;48.572;13.378;2024-03-08T00:54:04;-0.30;99.90
48488;DHT22;34289;48.572;13.378;2024-03-08T00:56:30;-0.40;99.90
48488;DHT22;34289;48.572;13.378;2024-03-08T00:58:55;-0.60;99.90
48488;DHT22;34289;48.572;13.378;2024-03-08T01:01:21;-1.10;99.90
48488;DHT22;34289;48.572;13.378;2024-03-08T01:03:46;-1.50;99.90
48488;DHT22;34289;48.572;13.378;2024-03-08T01:06:12;-1.40;99.90
48488;DHT22;34289;48.572;13.378;2024-03-08T01:08:38;-0.90;99.90
48488;DHT22;34289;48.572;13.378;2024-03-08T01:11:06;-1.10;99.90
48488;DHT22;34289;48.572;13.378;2024-03-08T01:13:31;-1.30;99.90
48488;DHT22;34289;48.572;13.378;2024-03-08T01:15:57;-1.20;99.90
48488;DHT22;34289;48.572;13.378;2024-03-08T01:18:22;-1.00;99.90
48488;DHT22;34289;48.572;13.378;2024-03-08T01:20:48;-1.10;99.90
48488;DHT22;34289;48.572;13.378;2024-03-08T01:28:07;-1.70;99.90
48488;DHT22;34289;48.572;13.378;2024-03-08T01:30:32;-1.50;99.90
48488;DHT22;34289;48.572;13.378;2024-03-08T01:33:00;-1.60;99.90
48488;DHT22;34289;48.572;13.378;2024-03-08T01:37:52;-0.90;99.90
48488;DHT22;34289;48.572;13.378;2024-03-08T01:40:18;-1.00;99.90
48488;DHT22;34289;48.572;13.378;2024-03-08T01:45:10;-1.30;99.90
48488;DHT22;34289;48.572;13.378;2024-03-08T01:50:02;-1.00;99.90
48488;DHT22;34289;48.572;13.378;2024-03-08T01:52:32;-1.10;99.90
48488;DHT22;34289;48.572;13.378;2024-03-08T01:54:59;-1.20;99.90
48488;DHT22;34289;48.572;13.378;2024-03-08T01:57:31;-1.10;99.90
48488;DHT22;34289;48.572;13.378;2024-03-08T01:59:57;-0.80;99.90
48488;DHT22;34289;48.572;13.378;2024-03-08T02:02:22;-0.70;99.90
48488;DHT22;34289;48.572;13.378;2024-03-08T02:04:48;-1.10;99.90
48488;DHT22;34289;48.572;13.378;2024-03-08T02:07:21;-1.30;99.90
48488;DHT22;34289;48.572;13.378;2024-03-08T02:09:47;-1.30;99.90
48488;DHT22;34289;48.572;13.378;2024-03-08T02:12:13;-1.60;99.90
48488;DHT22;34289;48.572;13.378;2024-03-08T02:14:39;-1.60;99.90
48488;DHT22;34289;48.572;13.378;2024-03-08T02:17:05;-1.80;99.90
48488;DHT22;34289;48.572;13.378;2024-03-08T02:19:31;-1.50;99.90
48488;DHT22;34289;48.572;13.378;2024-03-08T02:26:51;-1.50;99.90
48488;DHT22;34289;48.572;13.378;2024-03-08T02:36:35;-1.50;99.90
48488;DHT22;34289;48.572;13.378;2024-03-08T02:39:03;-1.40;99.90
48488;DHT22;34289;48.572;13.378;2024-03-08T02:53:41;-1.80;99.90
48488;DHT22;34289;48.572;13.378;2024-03-08T02:56:08;-1.30;99.90
48488;DHT22;34289;48.572;13.378;2024-03-08T02:58:38;-1.40;99.90
48488;DHT22;34289;48.572;13.378;2024-03-08T03:01:04;-1.80;99.90
48488;DHT22;34289;48.572;13.378;2024-03-08T03:03:29;-1.40;99.90
48488;DHT22;34289;48.572;13.378;2024-03-08T03:10:47;-1.80;99.90
48488;DHT22;34289;48.572;13.378;2024-03-08T03:15:39;-1.80;99.90
48488;DHT22;34289;48.572;13.378;2024-03-08T03:20:33;-1.70;99.90
48488;DHT22;34289;48.572;13.378;2024-03-08T03:28:03;-1.80;99.90
48488;DHT22;34289;48.572;13.378;2024-03-08T03:30:30;-1.50;99.90
48488;DHT22;34289;48.572;13.378;2024-03-08T03:33:02;-1.80;99.90
48488;DHT22;34289;48.572;13.378;2024-03-08T03:35:32;-2.00;99.90
48488;DHT22;34289;48.572;13.378;2024-03-08T03:37:57;-2.00;99.90
48488;DHT22;34289;48.572;13.378;2024-03-08T03:40:39;-2.10;99.90
48488;DHT22;34289;48.572;13.378;2024-03-08T03:43:05;-2.00;99.90
48488;DHT22;34289;48.572;13.378;2024-03-08T03:45:31;-1.90;99.90
48488;DHT22;34289;48.572;13.378;2024-03-08T03:48:02;-2.10;99.90
48488;DHT22;34289;48.572;13.378;2024-03-08T03:50:28;-1.90;99.90
48488;DHT22;34289;48.572;13.378;2024-03-08T03:57:47;-1.90;99.90
48488;DHT22;34289;48.572;13.378;2024-03-08T04:00:13;-1.90;99.90
48488;DHT22;34289;48.572;13.378;2024-03-08T04:02:40;-1.70;99.90
48488;DHT22;34289;48.572;13.378;2024-03-08T04:05:08;-1.60;99.90
48488;DHT22;34289;48.572;13.378;2024-03-08T04:07:35;-1.90;99.90
48488;DHT22;34289;48.572;13.378;2024-03-08T04:10:02;-2.30;99.90
48488;DHT22;34289;48.572;13.378;2024-03-08T04:12:28;-2.10;99.90
48488;DHT22;34289;48.572;13.378;2024-03-08T04:14:55;-2.20;99.90
48488;DHT22;34289;48.572;13.378;2024-03-08T04:17:21;-1.90;99.90
48488;DHT22;34289;48.572;13.378;2024-03-08T04:19:47;-1.80;99.90
48488;DHT22;34289;48.572;13.378;2024-03-08T04:22:14;-2.40;99.90
48488;DHT22;34289;48.572;13.378;2024-03-08T04:24:39;-2.50;99.90
48488;DHT22;34289;48.572;13.378;2024-03-08T04:27:06;-2.90;99.90
48488;DHT22;34289;48.572;13.378;2024-03-08T04:32:00;-2.10;99.90
48488;DHT22;34289;48.572;13.378;2024-03-08T04:34:29;-2.20;99.90
48488;DHT22;34289;48.572;13.378;2024-03-08T04:36:57;-2.20;99.90
48488;DHT22;34289;48.572;13.378;2024-03-08T04:39:23;-2.20;99.90
48488;DHT22;34289;48.572;13.378;2024-03-08T04:41:49;-2.20;99.90
48488;DHT22;34289;48.572;13.378;2024-03-08T04:44:16;-2.40;99.90
48488;DHT22;34289;48.572;13.378;2024-03-08T04:46:43;-2.10;99.90
48488;DHT22;34289;48.572;13.378;2024-03-08T04:49:08;-2.20;99.90
48488;DHT22;34289;48.572;13.378;2024-03-08T05:03:44;-2.20;99.90
48488;DHT22;34289;48.572;13.378;2024-03-08T05:06:11;-2.10;99.90
48488;DHT22;34289;48.572;13.378;2024-03-08T05:13:30;-2.20;99.90
48488;DHT22;34289;48.572;13.378;2024-03-08T05:15:56;-2.20;99.90
48488;DHT22;34289;48.572;13.378;2024-03-08T05:18:24;-2.00;99.90
48488;DHT22;34289;48.572;13.378;2024-03-08T05:20:50;-2.40;99.90
48488;DHT22;34289;48.572;13.378;2024-03-08T05:23:16;-3.00;99.90
48488;DHT22;34289;48.572;13.378;2024-03-08T05:25:42;-2.80;99.90
48488;DHT22;34289;48.572;13.378;2024-03-08T05:28:07;-2.70;99.90
48488;DHT22;34289;48.572;13.378;2024-03-08T05:30:34;-2.50;99.90
48488;DHT22;34289;48.572;13.378;2024-03-08T05:33:01;-2.80;99.90
48488;DHT22;34289;48.572;13.378;2024-03-08T05:47:39;-2.20;99.90
48488;DHT22;34289;48.572;13.378;2024-03-08T05:50:05;-2.50;99.90
48488;DHT22;34289;48.572;13.378;2024-03-08T05:52:32;-2.20;99.90
48488;DHT22;34289;48.572;13.378;2024-03-08T05:54:58;-2.30;99.90
48488;DHT22;34289;48.572;13.378;2024-03-08T05:57:24;-2.50;99.90
48488;DHT22;34289;48.572;13.378;2024-03-08T05:59:50;-1.90;99.90
48488;DHT22;34289;48.572;13.378;2024-03-08T06:02:15;-2.20;99.90
48488;DHT22;34289;48.572;13.378;2024-03-08T06:04:48;-2.40;99.90
48488;DHT22;34289;48.572;13.378;2024-03-08T06:07:15;-2.40;99.90
48488;DHT22;34289;48.572;13.378;2024-03-08T06:12:10;-2.60;99.90
48488;DHT22;34289;48.572;13.378;2024-03-08T06:14:36;-2.60;99.90
48488;DHT22;34289;48.572;13.378;2024-03-08T06:17:04;-2.10;99.90
48488;DHT22;34289;48.572;13.378;2024-03-08T06:19:32;-2.00;99.90
48488;DHT22;34289;48.572;13.378;2024-03-08T06:24:28;-1.80;99.90
48488;DHT22;34289;48.572;13.378;2024-03-08T06:31:45;-1.40;99.90
48488;DHT22;34289;48.572;13.378;2024-03-08T06:34:11;-0.80;99.90
48488;DHT22;34289;48.572;13.378;2024-03-08T06:36:37;-1.00;99.90
48488;DHT22;34289;48.572;13.378;2024-03-08T06:39:03;-0.20;99.90
48488;DHT22;34289;48.572;13.378;2024-03-08T06:41:35;0.20;99.90
48488;DHT22;34289;48.572;13.378;2024-03-08T06:44:01;0.60;99.90
48488;DHT22;34289;48.572;13.378;2024-03-08T06:46:26;0.50;99.90
48488;DHT22;34289;48.572;13.378;2024-03-08T06:48:52;0.70;99.90
48488;DHT22;34289;48.572;13.378;2024-03-08T06:51:18;0.80;99.90
48488;DHT22;34289;48.572;13.378;2024-03-08T06:53:44;1.20;99.90
48488;DHT22;34289;48.572;13.378;2024-03-08T06:56:10;1.20;99.90
48488;DHT22;34289;48.572;13.378;2024-03-08T06:58:35;2.90;99.90
48488;DHT22;34289;48.572;13.378;2024-03-08T07:01:01;6.20;99.90
48488;DHT22;34289;48.572;13.378;2024-03-08T07:03:29;7.10;99.90
48488;DHT22;34289;48.572;13.378;2024-03-08T07:05:56;8.70;99.90
48488;DHT22;34289;48.572;13.378;2024-03-08T07:08:23;10.00;99.90
48488;DHT22;34289;48.572;13.378;2024-03-08T07:10:49;10.00;99.90
48488;DHT22;34289;48.572;13.378;2024-03-08T07:13:15;11.40;99.90
48488;DHT22;34289;48.572;13.378;2024-03-08T07:15:43;12.20;99.70
48488;DHT22;34289;48.572;13.378;2024-03-08T07:18:08;13.20;97.80
48488;DHT22;34289;48.572;13.378;2024-03-08T07:20:34;13.90;96.90
48488;DHT22;34289;48.572;13.378;2024-03-08T07:23:02;14.50;96.10
48488;DHT22;34289;48.572;13.378;2024-03-08T07:25:28;14.20;96.90
48488;DHT22;34289;48.572;13.378;2024-03-08T07:27:55;14.50;96.40
48488;DHT22;34289;48.572;13.378;2024-03-08T07:30:26;15.30;98.30
48488;DHT22;34289;48.572;13.378;2024-03-08T07:33:20;16.10;98.70
48488;DHT22;34289;48.572;13.378;2024-03-08T07:35:48;14.90;95.20
48488;DHT22;34289;48.572;13.378;2024-03-08T07:38:15;14.30;96.10
48488;DHT22;34289;48.572;13.378;2024-03-08T07:40:42;13.70;97.00
48488;DHT22;34289;48.572;13.378;2024-03-08T07:43:10;14.10;97.30
48488;DHT22;34289;48.572;13.378;2024-03-08T07:45:37;15.60;95.10
48488;DHT22;34289;48.572;13.378;2024-03-08T07:48:03;16.00;95.00
48488;DHT22;34289;48.572;13.378;2024-03-08T07:50:29;15.10;95.90
48488;DHT22;34289;48.572;13.378;2024-03-08T07:52:55;15.00;95.80
48488;DHT22;34289;48.572;13.378;2024-03-08T07:55:20;17.30;95.40
48488;DHT22;34289;48.572;13.378;2024-03-08T07:57:49;17.20;92.80
48488;DHT22;34289;48.572;13.378;2024-03-08T08:00:15;15.00;93.60
48488;DHT22;34289;48.572;13.378;2024-03-08T08:02:46;13.20;96.20
48488;DHT22;34289;48.572;13.378;2024-03-08T08:05:14;11.90;99.90
48488;DHT22;34289;48.572;13.378;2024-03-08T08:07:39;11.70;97.80
48488;DHT22;34289;48.572;13.378;2024-03-08T08:10:09;13.10;97.50
48488;DHT22;34289;48.572;13.378;2024-03-08T08:12:40;13.60;96.30
48488;DHT22;34289;48.572;13.378;2024-03-08T08:15:07;12.90;99.90
48488;DHT22;34289;48.572;13.378;2024-03-08T08:17:33;12.70;96.80
48488;DHT22;34289;48.572;13.378;2024-03-08T08:20:00;12.40;97.80
48488;DHT22;34289;48.572;13.378;2024-03-08T08:22:25;12.70;97.70
48488;DHT22;34289;48.572;13.378;2024-03-08T08:24:51;14.00;96.50
48488;DHT22;34289;48.572;13.378;2024-03-08T08:27:17;15.00;95.40
48488;DHT22;34289;48.572;13.378;2024-03-08T08:29:43;14.40;95.40
48488;DHT22;34289;48.572;13.378;2024-03-08T08:32:11;15.60;93.70
48488;DHT22;34289;48.572;13.378;2024-03-08T08:34:37;15.00;94.90
48488;DHT22;34289;48.572;13.378;2024-03-08T08:37:02;14.80;95.20
48488;DHT22;34289;48.572;13.378;2024-03-08T08:39:28;14.10;95.10
48488;DHT22;34289;48.572;13.378;2024-03-08T08:41:53;14.40;94.60
48488;DHT22;34289;48.572;13.378;2024-03-08T08:44:19;13.70;94.30
48488;DHT22;34289;48.572;13.378;2024-03-08T08:46:45;12.60;95.80
48488;DHT22;34289;48.572;13.378;2024-03-08T08:49:11;12.90;96.90
48488;DHT22;34289;48.572;13.378;2024-03-08T08:51:40;12.70;95.40
48488;DHT22;34289;48.572;13.378;2024-03-08T08:54:05;12.50;95.70
48488;DHT22;34289;48.572;13.378;2024-03-08T08:56:34;12.80;95.10
48488;DHT22;34289;48.572;13.378;2024-03-08T08:59:00;12.60;95.60
48488;DHT22;34289;48.572;13.378;2024-03-08T09:01:26;13.10;95.10
48488;DHT22;34289;48.572;13.378;2024-03-08T09:03:52;13.60;94.40
48488;DHT22;34289;48.572;13.378;2024-03-08T09:06:19;12.20;94.90
48488;DHT22;34289;48.572;13.378;2024-03-08T09:08:45;12.40;95.80
48488;DHT22;34289;48.572;13.378;2024-03-08T09:11:11;11.80;96.50
48488;DHT22;34289;48.572;13.378;2024-03-08T09:13:37;12.20;96.10
48488;DHT22;34289;48.572;13.378;2024-03-08T09:16:03;12.10;97.30
48488;DHT22;34289;48.572;13.378;2024-03-08T09:18:30;12.20;97.10
48488;DHT22;34289;48.572;13.378;2024-03-08T09:20:57;11.70;96.50
48488;DHT22;34289;48.572;13.378;2024-03-08T09:23:23;12.00;97.90
48488;DHT22;34289;48.572;13.378;2024-03-08T09:25:49;11.80;96.80
48488;DHT22;34289;48.572;13.378;2024-03-08T09:28:15;11.00;99.90
48488;DHT22;34289;48.572;13.378;2024-03-08T09:30:41;11.10;99.90
48488;DHT22;34289;48.572;13.378;2024-03-08T09:33:07;10.80;99.90
48488;DHT22;34289;48.572;13.378;2024-03-08T09:35:33;10.60;99.90
48488;DHT22;34289;48.572;13.378;2024-03-08T09:40:24;11.20;99.90
48488;DHT22;34289;48.572;13.378;2024-03-08T09:42:51;11.60;99.90
48488;DHT22;34289;48.572;13.378;2024-03-08T09:45:20;11.30;96.20
48488;DHT22;34289;48.572;13.378;2024-03-08T09:47:47;11.40;99.90
48488;DHT22;34289;48.572;13.378;2024-03-08T09:50:15;11.70;99.90
48488;DHT22;34289;48.572;13.378;2024-03-08T09:52:42;11.30;99.90
48488;DHT22;34289;48.572;13.378;2024-03-08T09:55:09;11.00;99.90
48488;DHT22;34289;48.572;13.378;2024-03-08T09:57:37;11.30;99.90
48488;DHT22;34289;48.572;13.378;2024-03-08T10:00:04;11.30;99.90
48488;DHT22;34289;48.572;13.378;2024-03-08T10:05:19;10.40;99.90
48488;DHT22;34289;48.572;13.378;2024-03-08T10:07:45;10.90;99.90
48488;DHT22;34289;48.572;13.378;2024-03-08T10:10:11;11.10;99.90
48488;DHT22;34289;48.572;13.378;2024-03-08T10:12:38;10.50;96.80
48488;DHT22;34289;48.572;13.378;2024-03-08T10:15:07;10.60;99.90
48488;DHT22;34289;48.572;13.378;2024-03-08T10:17:35;11.20;99.90
48488;DHT22;34289;48.572;13.378;2024-03-08T10:20:00;10.90;99.90
48488;DHT22;34289;48.572;13.378;2024-03-08T10:24:52;9.90;99.90
48488;DHT22;34289;48.572;13.378;2024-03-08T10:27:18;10.00;97.70
48488;DHT22;34289;48.572;13.378;2024-03-08T10:29:50;10.70;96.30
48488;DHT22;34289;48.572;13.378;2024-03-08T10:32:17;11.30;99.90
48488;DHT22;34289;48.572;13.378;2024-03-08T10:34:43;10.60;99.90
48488;DHT22;34289;48.572;13.378;2024-03-08T10:37:15;10.90;99.90
48488;DHT22;34289;48.572;13.378;2024-03-08T10:39:48;10.60;99.90
48488;DHT22;34289;48.572;13.378;2024-03-08T10:42:20;10.90;96.40
48488;DHT22;34289;48.572;13.378;2024-03-08T10:45:15;11.20;99.90
48488;DHT22;34289;48.572;13.378;2024-03-08T10:47:49;10.30;99.90
48488;DHT22;34289;48.572;13.378;2024-03-08T10:50:19;10.90;99.90
48488;DHT22;34289;48.572;13.378;2024-03-08T10:52:52;11.30;99.90
48488;DHT22;34289;48.572;13.378;2024-03-08T10:55:18;11.20;96.80
48488;DHT22;34289;48.572;13.378;2024-03-08T10:57:46;11.10;99.90
48488;DHT22;34289;48.572;13.378;2024-03-08T11:00:13;11.10;96.20
48488;DHT22;34289;48.572;13.378;2024-03-08T11:02:43;10.90;99.90
48488;DHT22;34289;48.572;13.378;2024-03-08T11:05:31;11.10;97.60
48488;DHT22;34289;48.572;13.378;2024-03-08T11:08:03;10.60;99.90
48488;DHT22;34289;48.572;13.378;2024-03-08T11:12:58;11.50;99.90
48488;DHT22;34289;48.572;13.378;2024-03-08T11:15:24;11.30;99.90
48488;DHT22;34289;48.572;13.378;2024-03-08T11:17:50;10.80;99.90
48488;DHT22;34289;48.572;13.378;2024-03-08T11:20:18;10.90;99.90
48488;DHT22;34289;48.572;13.378;2024-03-08T11:22:59;10.90;99.90
48488;DHT22;34289;48.572;13.378;2024-03-08T11:25:34;10.90;99.90
48488;DHT22;34289;48.572;13.378;2024-03-08T11:28:27;11.30;99.90
48488;DHT22;34289;48.572;13.378;2024-03-08T11:33:28;11.60;99.90
48488;DHT22;34289;48.572;13.378;2024-03-08T11:36:03;11.60;99.90
48488;DHT22;34289;48.572;13.378;2024-03-08T11:38:43;11.50;96.60
48488;DHT22;34289;48.572;13.378;2024-03-08T11:41:09;11.20;94.90
48488;DHT22;34289;48.572;13.378;2024-03-08T11:43:42;11.30;96.60
48488;DHT22;34289;48.572;13.378;2024-03-08T11:46:09;11.30;99.90
48488;DHT22;34289;48.572;13.378;2024-03-08T11:48:34;11.50;99.90
48488;DHT22;34289;48.572;13.378;2024-03-08T11:51:04;11.30;95.40
48488;DHT22;34289;48.572;13.378;2024-03-08T11:53:30;11.40;99.90
48488;DHT22;34289;48.572;13.378;2024-03-08T11:56:09;11.10;99.90
48488;DHT22;34289;48.572;13.378;2024-03-08T11:58:37;10.90;99.90
48488;DHT22;34289;48.572;13.378;2024-03-08T12:01:09;11.10;99.90
48488;DHT22;34289;48.572;13.378;2024-03-08T12:03:38;11.50;96.00
48488;DHT22;34289;48.572;13.378;2024-03-08T12:06:04;11.60;99.90
48488;DHT22;34289;48.572;13.378;2024-03-08T12:08:33;12.10;99.90
48488;DHT22;34289;48.572;13.378;2024-03-08T12:10:58;12.10;99.90
48488;DHT22;34289;48.572;13.378;2024-03-08T12:13:28;11.60;99.90
48488;DHT22;34289;48.572;13.378;2024-03-08T12:16:00;11.50;99.90
48488;DHT22;34289;48.572;13.378;2024-03-08T12:18:26;11.60;98.20
48488;DHT22;34289;48.572;13.378;2024-03-08T12:21:07;11.10;99.90
48488;DHT22;34289;48.572;13.378;2024-03-08T12:23:34;10.90;94.90
48488;DHT22;34289;48.572;13.378;2024-03-08T12:28:43;11.20;99.60
48488;DHT22;34289;48.572;13.378;2024-03-08T12:31:13;11.60;99.90
48488;DHT22;34289;48.572;13.378;2024-03-08T12:33:55;11.50;97.60
48488;DHT22;34289;48.572;13.378;2024-03-08T12:36:24;11.30;96.30
48488;DHT22;34289;48.572;13.378;2024-03-08T12:38:51;11.90;99.90
48488;DHT22;34289;48.572;13.378;2024-03-08T12:41:17;11.40;99.90
48488;DHT22;34289;48.572;13.378;2024-03-08T12:43:44;11.20;93.00
48488;DHT22;34289;48.572;13.378;2024-03-08T12:46:16;11.00;96.50
48488;DHT22;34289;48.572;13.378;2024-03-08T12:48:46;10.90;99.90
48488;DHT22;34289;48.572;13.378;2024-03-08T12:51:15;10.70;98.00
48488;DHT22;34289;48.572;13.378;2024-03-08T12:53:42;11.00;99.90
48488;DHT22;34289;48.572;13.378;2024-03-08T12:56:10;10.80;99.90
48488;DHT22;34289;48.572;13.378;2024-03-08T13:01:03;10.90;94.20
48488;DHT22;34289;48.572;13.378;2024-03-08T13:06:05;11.60;99.90
48488;DHT22;34289;48.572;13.378;2024-03-08T13:08:35;11.80;97.30
48488;DHT22;34289;48.572;13.378;2024-03-08T13:11:01;11.70;99.50
48488;DHT22;34289;48.572;13.378;2024-03-08T13:13:29;11.40;97.40
48488;DHT22;34289;48.572;13.378;2024-03-08T13:18:22;11.90;98.40
48488;DHT22;34289;48.572;13.378;2024-03-08T13:23:17;12.40;99.90
48488;DHT22;34289;48.572;13.378;2024-03-08T13:25:43;11.70;99.90
48488;DHT22;34289;48.572;13.378;2024-03-08T13:28:09;11.50;96.30
48488;DHT22;34289;48.572;13.378;2024-03-08T13:30:35;12.30;99.90
48488;DHT22;34289;48.572;13.378;2024-03-08T13:33:01;12.20;94.90
48488;DHT22;34289;48.572;13.378;2024-03-08T13:35:27;11.70;97.70
48488;DHT22;34289;48.572;13.378;2024-03-08T13:37:55;11.70;99.90
48488;DHT22;34289;48.572;13.378;2024-03-08T13:40:21;11.80;97.50
48488;DHT22;34289;48.572;13.378;2024-03-08T13:42:47;11.50;94.00
48488;DHT22;34289;48.572;13.378;2024-03-08T13:45:15;11.60;99.90
48488;DHT22;34289;48.572;13.378;2024-03-08T13:47:43;11.40;97.80
48488;DHT22;34289;48.572;13.378;2024-03-08T13:50:11;11.20;99.90
48488;DHT22;34289;48.572;13.378;2024-03-08T13:52:49;11.40;99.90
48488;DHT22;34289;48.572;13.378;2024-03-08T13:55:19;11.50;98.10
48488;DHT22;34289;48.572;13.378;2024-03-08T13:57:45;11.90;98.00
48488;DHT22;34289;48.572;13.378;2024-03-08T14:02:40;11.60;99.90
48488;DHT22;34289;48.572;13.378;2024-03-08T14:05:06;11.80;94.90
48488;DHT22;34289;48.572;13.378;2024-03-08T14:07:34;11.80;99.90
48488;DHT22;34289;48.572;13.378;2024-03-08T14:10:00;11.50;99.80
48488;DHT22;34289;48.572;13.378;2024-03-08T14:14:53;11.10;99.90
48488;DHT22;34289;48.572;13.378;2024-03-08T14:17:18;11.10;99.10
48488;DHT22;34289;48.572;13.378;2024-03-08T14:19:44;11.00;99.80
48488;DHT22;34289;48.572;13.378;2024-03-08T14:22:10;11.30;99.90
48488;DHT22;34289;48.572;13.378;2024-03-08T14:24:40;10.90;95.90
48488;DHT22;34289;48.572;13.378;2024-03-08T14:29:35;11.00;99.90
48488;DHT22;34289;48.572;13.378;2024-03-08T14:34:28;10.60;99.80
48488;DHT22;34289;48.572;13.378;2024-03-08T14:36:55;10.90;94.70
48488;DHT22;34289;48.572;13.378;2024-03-08T14:41:52;10.60;98.30
48488;DHT22;34289;48.572;13.378;2024-03-08T14:44:19;10.80;99.90
48488;DHT22;34289;48.572;13.378;2024-03-08T14:49:11;10.40;99.80
48488;DHT22;34289;48.572;13.378;2024-03-08T14:51:37;10.90;99.90
48488;DHT22;34289;48.572;13.378;2024-03-08T14:54:03;10.70;99.90
48488;DHT22;34289;48.572;13.378;2024-03-08T14:56:32;10.60;96.30
48488;DHT22;34289;48.572;13.378;2024-03-08T14:58:58;10.80;97.30
48488;DHT22;34289;48.572;13.378;2024-03-08T15:01:25;10.50;99.90
48488;DHT22;34289;48.572;13.378;2024-03-08T15:03:57;10.90;99.90
48488;DHT22;34289;48.572;13.378;2024-03-08T15:06:28;10.70;99.90
48488;DHT22;34289;48.572;13.378;2024-03-08T15:08:56;10.40;99.90
48488;DHT22;34289;48.572;13.378;2024-03-08T15:11:23;10.60;99.90
48488;DHT22;34289;48.572;13.378;2024-03-08T15:13:51;10.90;95.30
48488;DHT22;34289;48.572;13.378;2024-03-08T15:16:19;10.60;99.90
48488;DHT22;34289;48.572;13.378;2024-03-08T15:18:46;10.70;96.50
48488;DHT22;34289;48.572;13.378;2024-03-08T15:21:13;10.50;99.90
48488;DHT22;34289;48.572;13.378;2024-03-08T15:26:16;10.50;95.70
48488;DHT22;34289;48.572;13.378;2024-03-08T15:28:43;10.70;99.80
48488;DHT22;34289;48.572;13.378;2024-03-08T15:31:10;10.50;99.90
48488;DHT22;34289;48.572;13.378;2024-03-08T15:33:38;10.40;95.10
48488;DHT22;34289;48.572;13.378;2024-03-08T15:36:09;10.20;99.90
48488;DHT22;34289;48.572;13.378;2024-03-08T15:38:37;10.10;99.90
48488;DHT22;34289;48.572;13.378;2024-03-08T15:41:03;10.30;99.90
48488;DHT22;34289;48.572;13.378;2024-03-08T15:43:35;10.20;95.90
48488;DHT22;34289;48.572;13.378;2024-03-08T15:46:03;10.00;96.10
48488;DHT22;34289;48.572;13.378;2024-03-08T15:48:31;10.30;99.90
48488;DHT22;34289;48.572;13.378;2024-03-08T15:50:57;9.90;99.90
48488;DHT22;34289;48.572;13.378;2024-03-08T15:53:22;10.00;99.90
48488;DHT22;34289;48.572;13.378;2024-03-08T15:58:15;10.10;99.90
48488;DHT22;34289;48.572;13.378;2024-03-08T16:00:41;9.90;99.90
48488;DHT22;34289;48.572;13.378;2024-03-08T16:03:13;9.20;99.90
48488;DHT22;34289;48.572;13.378;2024-03-08T16:05:44;9.50;99.90
48488;DHT22;34289;48.572;13.378;2024-03-08T16:08:17;9.80;99.90
48488;DHT22;34289;48.572;13.378;2024-03-08T16:10:53;9.60;96.50
48488;DHT22;34289;48.572;13.378;2024-03-08T16:13:24;9.50;99.20
48488;DHT22;34289;48.572;13.378;2024-03-08T16:15:53;9.30;99.90
48488;DHT22;34289;48.572;13.378;2024-03-08T16:18:20;9.40;99.90
48488;DHT22;34289;48.572;13.378;2024-03-08T16:20:52;9.50;99.90
48488;DHT22;34289;48.572;13.378;2024-03-08T16:28:11;9.00;98.00
48488;DHT22;34289;48.572;13.378;2024-03-08T16:30:39;9.20;99.90
48488;DHT22;34289;48.572;13.378;2024-03-08T16:33:07;8.90;99.90
48488;DHT22;34289;48.572;13.378;2024-03-08T16:35:33;9.00;99.90
48488;DHT22;34289;48.572;13.378;2024-03-08T16:38:01;8.70;99.90
48488;DHT22;34289;48.572;13.378;2024-03-08T16:40:27;9.00;99.90
48488;DHT22;34289;48.572;13.378;2024-03-08T16:42:53;9.00;99.90
48488;DHT22;34289;48.572;13.378;2024-03-08T16:45:21;8.80;99.90
48488;DHT22;34289;48.572;13.378;2024-03-08T16:47:47;8.90;99.90
48488;DHT22;34289;48.572;13.378;2024-03-08T16:50:15;8.40;99.90
48488;DHT22;34289;48.572;13.378;2024-03-08T16:52:42;8.40;99.90
48488;DHT22;34289;48.572;13.378;2024-03-08T16:55:12;8.40;99.90
48488;DHT22;34289;48.572;13.378;2024-03-08T16:57:45;8.10;99.90
48488;DHT22;34289;48.572;13.378;2024-03-08T17:00:17;7.90;99.90
48488;DHT22;34289;48.572;13.378;2024-03-08T17:02:56;7.80;99.90
48488;DHT22;34289;48.572;13.378;2024-03-08T17:12:46;7.60;99.90
48488;DHT22;34289;48.572;13.378;2024-03-08T17:15:15;7.20;99.90
48488;DHT22;34289;48.572;13.378;2024-03-08T17:17:43;7.20;99.90
48488;DHT22;34289;48.572;13.378;2024-03-08T17:20:12;7.60;99.90
48488;DHT22;34289;48.572;13.378;2024-03-08T17:30:29;7.10;99.90
48488;DHT22;34289;48.572;13.378;2024-03-08T17:35:26;7.00;99.90
48488;DHT22;34289;48.572;13.378;2024-03-08T17:37:53;7.60;99.90
48488;DHT22;34289;48.572;13.378;2024-03-08T17:40:24;7.00;99.90
48488;DHT22;34289;48.572;13.378;2024-03-08T17:45:19;6.70;99.90
48488;DHT22;34289;48.572;13.378;2024-03-08T17:47:49;6.70;99.90
48488;DHT22;34289;48.572;13.378;2024-03-08T17:52:44;6.70;99.90
48488;DHT22;34289;48.572;13.378;2024-03-08T17:55:11;6.20;99.90
48488;DHT22;34289;48.572;13.378;2024-03-08T17:57:50;6.80;99.90
48488;DHT22;34289;48.572;13.378;2024-03-08T18:00:19;6.80;99.90
48488;DHT22;34289;48.572;13.378;2024-03-08T18:02:55;6.80;99.90
48488;DHT22;34289;48.572;13.378;2024-03-08T18:05:23;6.10;99.90
48488;DHT22;34289;48.572;13.378;2024-03-08T18:08:01;6.60;99.90
48488;DHT22;34289;48.572;13.378;2024-03-08T18:10:28;6.40;99.90